Pijnacker, Netherlands
Current Conditions -  °F | °C
As of 11:55 PM on Tuesday 25 Nov 2014 (Local Time) from EHRD Reporting Station
Clear Clear  
Wind Chill: 34°   Ceiling: Unl
Heat Index: 41°   Visibility: 6mi
Dew Point: 37°   Wind: 12mph
Humidity: 87%   Direction: 80°E
Pressure: 30.09"   Gusts: NA
Location:  52.02°N, 4.43°E
Report Text: EHRD 252255Z AUTO 08010KT 9999 NSC 05/03 Q1019 NOSIG
Loading
Personal Weather Stations






























Interactive Weather Map New forecast layout! Learn more

10-Day Weather Forecast

Advertisements
Track Severe Weather on mobile